Terminal Aerodrome Forecast
Issued by NWS

Home | Current Version | Previous Version | Text Only | Print | Product List | Glossary On
Versions: 1 2 3 4 5 6 7 8 9 10 11 12 13 14 15 16 17 18 19 20 21 22 23 24 25 26 27 28
949
FTUS43 KDMX 242326
TAFFOD
TAF
KFOD 242326Z 2500/2524 18013KT P6SM SKC
     FM250100 17012G18KT P6SM SCT130
     FM250300 17010KT P6SM BKN070
     FM251500 13008KT P6SM -SHRA OVC035
     FM251900 10010KT 5SM -RA OVC030
     FM252300 08008KT P6SM OVC028=

USA.gov is the U.S. government's official web portal to all federal, state and local government web resources and services.